sensor_id;sensor_type;location;lat;lon;timestamp;P1;durP1;ratioP1;P2;durP2;ratioP2
2362;SDS011;64265;51.664;7.626;2023-02-24T00:00:12;7.18;;;5.13;;
2362;SDS011;64265;51.664;7.626;2023-02-24T00:02:57;4.90;;;4.35;;
2362;SDS011;64265;51.664;7.626;2023-02-24T00:05:29;5.18;;;4.68;;
2362;SDS011;64265;51.664;7.626;2023-02-24T00:07:58;5.35;;;4.85;;
2362;SDS011;64265;51.664;7.626;2023-02-24T00:10:24;6.40;;;5.25;;
2362;SDS011;64265;51.664;7.626;2023-02-24T00:12:51;7.60;;;4.80;;
2362;SDS011;64265;51.664;7.626;2023-02-24T00:15:18;5.28;;;4.40;;
2362;SDS011;64265;51.664;7.626;2023-02-24T00:17:45;5.03;;;4.10;;
2362;SDS011;64265;51.664;7.626;2023-02-24T00:20:13;5.78;;;5.28;;
2362;SDS011;64265;51.664;7.626;2023-02-24T00:22:42;6.70;;;5.95;;
2362;SDS011;64265;51.664;7.626;2023-02-24T00:25:10;13.10;;;5.10;;
2362;SDS011;64265;51.664;7.626;2023-02-24T00:27:38;4.82;;;4.43;;
2362;SDS011;64265;51.664;7.626;2023-02-24T00:30:07;8.95;;;5.75;;
2362;SDS011;64265;51.664;7.626;2023-02-24T00:32:35;5.28;;;3.90;;
2362;SDS011;64265;51.664;7.626;2023-02-24T00:35:02;5.43;;;3.97;;
2362;SDS011;64265;51.664;7.626;2023-02-24T00:37:31;5.90;;;4.80;;
2362;SDS011;64265;51.664;7.626;2023-02-24T00:39:57;5.50;;;3.92;;
2362;SDS011;64265;51.664;7.626;2023-02-24T00:42:24;5.75;;;4.80;;
2362;SDS011;64265;51.664;7.626;2023-02-24T00:44:51;5.97;;;4.32;;
2362;SDS011;64265;51.664;7.626;2023-02-24T00:47:19;6.30;;;4.50;;
2362;SDS011;64265;51.664;7.626;2023-02-24T00:49:46;4.80;;;3.97;;
2362;SDS011;64265;51.664;7.626;2023-02-24T00:52:15;5.00;;;4.47;;
2362;SDS011;64265;51.664;7.626;2023-02-24T00:54:44;7.10;;;4.35;;
2362;SDS011;64265;51.664;7.626;2023-02-24T00:57:12;4.97;;;4.50;;
2362;SDS011;64265;51.664;7.626;2023-02-24T00:59:41;3.83;;;3.47;;
2362;SDS011;64265;51.664;7.626;2023-02-24T01:02:11;5.15;;;4.25;;
2362;SDS011;64265;51.664;7.626;2023-02-24T01:04:39;4.60;;;4.20;;
2362;SDS011;64265;51.664;7.626;2023-02-24T01:07:08;4.82;;;4.20;;
2362;SDS011;64265;51.664;7.626;2023-02-24T01:09:37;4.07;;;3.53;;
2362;SDS011;64265;51.664;7.626;2023-02-24T01:12:07;4.20;;;3.80;;
2362;SDS011;64265;51.664;7.626;2023-02-24T01:14:57;5.63;;;4.03;;
2362;SDS011;64265;51.664;7.626;2023-02-24T01:17:27;5.03;;;4.53;;
2362;SDS011;64265;51.664;7.626;2023-02-24T01:19:53;4.05;;;3.65;;
2362;SDS011;64265;51.664;7.626;2023-02-24T01:22:24;5.95;;;5.13;;
2362;SDS011;64265;51.664;7.626;2023-02-24T01:24:51;6.38;;;4.55;;
2362;SDS011;64265;51.664;7.626;2023-02-24T01:27:19;5.93;;;3.60;;
2362;SDS011;64265;51.664;7.626;2023-02-24T01:29:46;4.35;;;3.85;;
2362;SDS011;64265;51.664;7.626;2023-02-24T01:32:14;3.85;;;3.47;;
2362;SDS011;64265;51.664;7.626;2023-02-24T01:34:42;4.32;;;3.92;;
2362;SDS011;64265;51.664;7.626;2023-02-24T01:37:09;4.70;;;3.63;;
2362;SDS011;64265;51.664;7.626;2023-02-24T01:39:40;4.28;;;3.80;;
2362;SDS011;64265;51.664;7.626;2023-02-24T01:42:09;4.70;;;4.13;;
2362;SDS011;64265;51.664;7.626;2023-02-24T01:47:37;4.13;;;3.50;;
2362;SDS011;64265;51.664;7.626;2023-02-24T01:50:06;3.80;;;3.50;;
2362;SDS011;64265;51.664;7.626;2023-02-24T01:52:34;5.35;;;4.28;;
2362;SDS011;64265;51.664;7.626;2023-02-24T01:55:05;4.50;;;3.95;;
2362;SDS011;64265;51.664;7.626;2023-02-24T01:57:37;8.32;;;4.10;;
2362;SDS011;64265;51.664;7.626;2023-02-24T02:00:06;4.43;;;4.05;;
2362;SDS011;64265;51.664;7.626;2023-02-24T02:02:43;5.30;;;3.90;;
2362;SDS011;64265;51.664;7.626;2023-02-24T02:05:14;5.50;;;4.05;;
2362;SDS011;64265;51.664;7.626;2023-02-24T02:07:42;3.20;;;3.00;;
2362;SDS011;64265;51.664;7.626;2023-02-24T02:10:10;5.30;;;3.55;;
2362;SDS011;64265;51.664;7.626;2023-02-24T02:12:42;4.22;;;3.58;;
2362;SDS011;64265;51.664;7.626;2023-02-24T02:15:11;4.75;;;3.97;;
2362;SDS011;64265;51.664;7.626;2023-02-24T02:17:42;4.65;;;3.10;;
2362;SDS011;64265;51.664;7.626;2023-02-24T02:20:27;4.95;;;3.50;;
2362;SDS011;64265;51.664;7.626;2023-02-24T02:29:23;4.97;;;3.78;;
2362;SDS011;64265;51.664;7.626;2023-02-24T02:32:22;3.80;;;3.50;;
2362;SDS011;64265;51.664;7.626;2023-02-24T02:35:06;5.57;;;3.72;;
2362;SDS011;64265;51.664;7.626;2023-02-24T02:37:38;3.38;;;3.08;;
2362;SDS011;64265;51.664;7.626;2023-02-24T02:40:13;3.70;;;3.35;;
2362;SDS011;64265;51.664;7.626;2023-02-24T02:42:48;3.65;;;3.30;;
2362;SDS011;64265;51.664;7.626;2023-02-24T02:45:23;3.45;;;2.95;;
2362;SDS011;64265;51.664;7.626;2023-02-24T02:47:56;4.13;;;3.75;;
2362;SDS011;64265;51.664;7.626;2023-02-24T02:50:30;3.70;;;3.40;;
2362;SDS011;64265;51.664;7.626;2023-02-24T02:53:02;4.00;;;3.03;;
2362;SDS011;64265;51.664;7.626;2023-02-24T02:55:34;3.78;;;3.45;;
2362;SDS011;64265;51.664;7.626;2023-02-24T02:58:05;4.72;;;3.40;;
2362;SDS011;64265;51.664;7.626;2023-02-24T03:00:39;3.95;;;3.60;;
2362;SDS011;64265;51.664;7.626;2023-02-24T03:03:14;4.40;;;3.55;;
2362;SDS011;64265;51.664;7.626;2023-02-24T03:05:45;4.35;;;3.80;;
2362;SDS011;64265;51.664;7.626;2023-02-24T03:08:17;3.47;;;3.17;;
2362;SDS011;64265;51.664;7.626;2023-02-24T03:10:49;3.95;;;3.55;;
2362;SDS011;64265;51.664;7.626;2023-02-24T03:13:19;3.38;;;3.08;;
2362;SDS011;64265;51.664;7.626;2023-02-24T03:15:49;3.97;;;3.58;;
2362;SDS011;64265;51.664;7.626;2023-02-24T03:18:20;4.05;;;2.92;;
2362;SDS011;64265;51.664;7.626;2023-02-24T03:20:55;5.05;;;3.35;;
2362;SDS011;64265;51.664;7.626;2023-02-24T03:23:25;3.42;;;3.13;;
2362;SDS011;64265;51.664;7.626;2023-02-24T03:25:57;3.70;;;3.30;;
2362;SDS011;64265;51.664;7.626;2023-02-24T03:28:32;5.20;;;3.78;;
2362;SDS011;64265;51.664;7.626;2023-02-24T03:31:01;4.05;;;3.17;;
2362;SDS011;64265;51.664;7.626;2023-02-24T03:33:33;3.75;;;3.35;;
2362;SDS011;64265;51.664;7.626;2023-02-24T03:36:06;3.80;;;3.42;;
2362;SDS011;64265;51.664;7.626;2023-02-24T03:38:33;3.58;;;2.78;;
2362;SDS011;64265;51.664;7.626;2023-02-24T03:41:02;3.83;;;2.90;;
2362;SDS011;64265;51.664;7.626;2023-02-24T03:43:35;3.20;;;2.90;;
2362;SDS011;64265;51.664;7.626;2023-02-24T03:46:06;3.10;;;2.80;;
2362;SDS011;64265;51.664;7.626;2023-02-24T03:48:33;2.85;;;2.65;;
2362;SDS011;64265;51.664;7.626;2023-02-24T03:51:10;3.85;;;3.42;;
2362;SDS011;64265;51.664;7.626;2023-02-24T03:53:43;3.45;;;2.85;;
2362;SDS011;64265;51.664;7.626;2023-02-24T03:56:22;3.20;;;2.90;;
2362;SDS011;64265;51.664;7.626;2023-02-24T03:58:58;3.70;;;2.80;;
2362;SDS011;64265;51.664;7.626;2023-02-24T04:01:37;2.13;;;1.90;;
2362;SDS011;64265;51.664;7.626;2023-02-24T04:04:13;4.20;;;3.22;;
2362;SDS011;64265;51.664;7.626;2023-02-24T04:06:53;3.00;;;2.80;;
2362;SDS011;64265;51.664;7.626;2023-02-24T04:09:25;3.28;;;2.78;;
2362;SDS011;64265;51.664;7.626;2023-02-24T04:12:03;4.13;;;3.00;;
2362;SDS011;64265;51.664;7.626;2023-02-24T04:14:38;4.05;;;3.20;;
2362;SDS011;64265;51.664;7.626;2023-02-24T04:17:12;3.88;;;2.90;;
2362;SDS011;64265;51.664;7.626;2023-02-24T04:19:44;4.15;;;3.55;;
2362;SDS011;64265;51.664;7.626;2023-02-24T04:22:16;2.95;;;2.75;;
2362;SDS011;64265;51.664;7.626;2023-02-24T04:24:49;3.20;;;2.90;;
2362;SDS011;64265;51.664;7.626;2023-02-24T04:27:19;3.30;;;3.00;;
2362;SDS011;64265;51.664;7.626;2023-02-24T04:29:48;4.47;;;2.80;;
2362;SDS011;64265;51.664;7.626;2023-02-24T04:32:17;3.45;;;3.10;;
2362;SDS011;64265;51.664;7.626;2023-02-24T04:34:47;3.25;;;2.78;;
2362;SDS011;64265;51.664;7.626;2023-02-24T04:37:16;3.35;;;3.05;;
2362;SDS011;64265;51.664;7.626;2023-02-24T04:39:47;2.90;;;2.45;;
2362;SDS011;64265;51.664;7.626;2023-02-24T04:42:14;2.80;;;2.55;;
2362;SDS011;64265;51.664;7.626;2023-02-24T04:44:43;4.07;;;3.15;;
2362;SDS011;64265;51.664;7.626;2023-02-24T04:47:11;3.10;;;2.80;;
2362;SDS011;64265;51.664;7.626;2023-02-24T04:49:37;2.80;;;2.60;;
2362;SDS011;64265;51.664;7.626;2023-02-24T04:52:05;3.05;;;2.75;;
2362;SDS011;64265;51.664;7.626;2023-02-24T04:54:34;3.50;;;2.70;;
2362;SDS011;64265;51.664;7.626;2023-02-24T04:57:01;3.53;;;2.85;;
2362;SDS011;64265;51.664;7.626;2023-02-24T04:59:30;3.92;;;2.50;;
2362;SDS011;64265;51.664;7.626;2023-02-24T05:01:57;3.45;;;2.40;;
2362;SDS011;64265;51.664;7.626;2023-02-24T05:04:25;3.00;;;2.70;;
2362;SDS011;64265;51.664;7.626;2023-02-24T05:06:54;2.47;;;2.28;;
2362;SDS011;64265;51.664;7.626;2023-02-24T05:09:21;2.55;;;2.33;;
2362;SDS011;64265;51.664;7.626;2023-02-24T05:11:55;3.90;;;2.80;;
2362;SDS011;64265;51.664;7.626;2023-02-24T05:14:24;2.28;;;2.08;;
2362;SDS011;64265;51.664;7.626;2023-02-24T05:16:51;4.80;;;3.13;;
2362;SDS011;64265;51.664;7.626;2023-02-24T05:19:24;3.38;;;2.75;;
2362;SDS011;64265;51.664;7.626;2023-02-24T05:22:08;3.17;;;2.72;;
2362;SDS011;64265;51.664;7.626;2023-02-24T05:24:35;2.80;;;2.35;;
2362;SDS011;64265;51.664;7.626;2023-02-24T05:27:04;2.42;;;2.22;;
2362;SDS011;64265;51.664;7.626;2023-02-24T05:29:32;2.60;;;2.40;;
2362;SDS011;64265;51.664;7.626;2023-02-24T05:32:00;2.90;;;2.60;;
2362;SDS011;64265;51.664;7.626;2023-02-24T05:34:30;3.78;;;2.85;;
2362;SDS011;64265;51.664;7.626;2023-02-24T05:36:58;2.42;;;2.22;;
2362;SDS011;64265;51.664;7.626;2023-02-24T05:39:28;3.40;;;2.70;;
2362;SDS011;64265;51.664;7.626;2023-02-24T05:41:55;2.65;;;2.33;;
2362;SDS011;64265;51.664;7.626;2023-02-24T05:44:24;2.53;;;2.33;;
2362;SDS011;64265;51.664;7.626;2023-02-24T05:46:52;2.80;;;2.50;;
2362;SDS011;64265;51.664;7.626;2023-02-24T05:49:22;2.50;;;2.30;;
2362;SDS011;64265;51.664;7.626;2023-02-24T05:51:53;2.55;;;2.35;;
2362;SDS011;64265;51.664;7.626;2023-02-24T05:54:22;3.17;;;2.00;;
2362;SDS011;64265;51.664;7.626;2023-02-24T05:56:53;2.10;;;1.90;;
2362;SDS011;64265;51.664;7.626;2023-02-24T05:59:21;3.53;;;2.30;;
2362;SDS011;64265;51.664;7.626;2023-02-24T06:01:49;3.15;;;2.08;;
2362;SDS011;64265;51.664;7.626;2023-02-24T06:04:18;2.88;;;2.10;;
2362;SDS011;64265;51.664;7.626;2023-02-24T06:07:03;2.47;;;2.28;;
2362;SDS011;64265;51.664;7.626;2023-02-24T06:09:31;3.30;;;2.50;;
2362;SDS011;64265;51.664;7.626;2023-02-24T06:11:59;2.50;;;2.30;;
2362;SDS011;64265;51.664;7.626;2023-02-24T06:14:27;2.42;;;2.13;;
2362;SDS011;64265;51.664;7.626;2023-02-24T06:16:54;2.80;;;2.60;;
2362;SDS011;64265;51.664;7.626;2023-02-24T06:19:21;2.45;;;1.85;;
2362;SDS011;64265;51.664;7.626;2023-02-24T06:21:49;3.50;;;2.75;;
2362;SDS011;64265;51.664;7.626;2023-02-24T06:24:16;2.85;;;2.42;;
2362;SDS011;64265;51.664;7.626;2023-02-24T06:26:43;2.65;;;2.45;;
2362;SDS011;64265;51.664;7.626;2023-02-24T06:29:10;3.00;;;2.33;;
2362;SDS011;64265;51.664;7.626;2023-02-24T06:31:40;2.35;;;2.08;;
2362;SDS011;64265;51.664;7.626;2023-02-24T06:34:07;1.80;;;1.60;;
2362;SDS011;64265;51.664;7.626;2023-02-24T06:36:35;2.72;;;2.28;;
2362;SDS011;64265;51.664;7.626;2023-02-24T06:39:02;3.40;;;2.50;;
2362;SDS011;64265;51.664;7.626;2023-02-24T06:41:32;2.92;;;2.40;;
2362;SDS011;64265;51.664;7.626;2023-02-24T06:43:58;3.83;;;2.90;;
2362;SDS011;64265;51.664;7.626;2023-02-24T06:46:25;2.67;;;2.42;;
2362;SDS011;64265;51.664;7.626;2023-02-24T06:48:53;2.30;;;1.88;;
2362;SDS011;64265;51.664;7.626;2023-02-24T06:51:22;2.35;;;2.15;;
2362;SDS011;64265;51.664;7.626;2023-02-24T06:53:54;3.55;;;2.10;;
2362;SDS011;64265;51.664;7.626;2023-02-24T06:56:21;2.85;;;1.95;;
2362;SDS011;64265;51.664;7.626;2023-02-24T06:58:49;2.85;;;2.40;;
2362;SDS011;64265;51.664;7.626;2023-02-24T07:01:17;2.22;;;1.95;;
2362;SDS011;64265;51.664;7.626;2023-02-24T07:03:46;2.35;;;2.15;;
2362;SDS011;64265;51.664;7.626;2023-02-24T07:06:29;2.33;;;2.13;;
2362;SDS011;64265;51.664;7.626;2023-02-24T07:08:58;2.40;;;1.88;;
2362;SDS011;64265;51.664;7.626;2023-02-24T07:11:26;6.90;;;2.25;;
2362;SDS011;64265;51.664;7.626;2023-02-24T07:13:54;2.13;;;1.92;;
2362;SDS011;64265;51.664;7.626;2023-02-24T07:16:21;1.83;;;1.70;;
2362;SDS011;64265;51.664;7.626;2023-02-24T07:18:52;2.63;;;1.60;;
2362;SDS011;64265;51.664;7.626;2023-02-24T07:21:21;2.70;;;2.13;;
2362;SDS011;64265;51.664;7.626;2023-02-24T07:23:50;3.72;;;2.17;;
2362;SDS011;64265;51.664;7.626;2023-02-24T07:26:21;4.03;;;2.08;;
2362;SDS011;64265;51.664;7.626;2023-02-24T07:28:50;3.90;;;1.80;;
2362;SDS011;64265;51.664;7.626;2023-02-24T07:31:19;4.68;;;2.10;;
2362;SDS011;64265;51.664;7.626;2023-02-24T07:33:47;2.30;;;2.10;;
2362;SDS011;64265;51.664;7.626;2023-02-24T07:36:17;2.55;;;1.70;;
2362;SDS011;64265;51.664;7.626;2023-02-24T07:38:47;2.08;;;1.83;;
2362;SDS011;64265;51.664;7.626;2023-02-24T07:41:18;2.22;;;1.85;;
2362;SDS011;64265;51.664;7.626;2023-02-24T07:43:47;2.10;;;1.70;;
2362;SDS011;64265;51.664;7.626;2023-02-24T07:46:16;2.33;;;1.80;;
2362;SDS011;64265;51.664;7.626;2023-02-24T07:48:44;3.40;;;1.90;;
2362;SDS011;64265;51.664;7.626;2023-02-24T07:51:12;1.77;;;1.60;;
2362;SDS011;64265;51.664;7.626;2023-02-24T07:53:41;1.77;;;1.67;;
2362;SDS011;64265;51.664;7.626;2023-02-24T07:56:11;3.80;;;1.70;;
2362;SDS011;64265;51.664;7.626;2023-02-24T07:58:41;2.45;;;2.25;;
2362;SDS011;64265;51.664;7.626;2023-02-24T08:01:09;1.95;;;1.85;;
2362;SDS011;64265;51.664;7.626;2023-02-24T08:03:46;3.33;;;2.20;;
2362;SDS011;64265;51.664;7.626;2023-02-24T08:06:14;3.88;;;2.35;;
2362;SDS011;64265;51.664;7.626;2023-02-24T08:08:50;4.20;;;2.58;;
2362;SDS011;64265;51.664;7.626;2023-02-24T08:11:42;2.83;;;2.10;;
2362;SDS011;64265;51.664;7.626;2023-02-24T08:14:11;3.45;;;2.00;;
2362;SDS011;64265;51.664;7.626;2023-02-24T08:16:38;4.38;;;2.20;;
2362;SDS011;64265;51.664;7.626;2023-02-24T08:19:06;2.78;;;2.40;;
2362;SDS011;64265;51.664;7.626;2023-02-24T08:21:36;8.57;;;2.65;;
2362;SDS011;64265;51.664;7.626;2023-02-24T08:24:05;3.55;;;2.55;;
2362;SDS011;64265;51.664;7.626;2023-02-24T08:26:42;5.32;;;2.22;;
2362;SDS011;64265;51.664;7.626;2023-02-24T08:29:10;3.85;;;2.05;;
2362;SDS011;64265;51.664;7.626;2023-02-24T08:31:37;4.53;;;1.88;;
2362;SDS011;64265;51.664;7.626;2023-02-24T08:34:04;6.22;;;2.20;;
2362;SDS011;64265;51.664;7.626;2023-02-24T08:36:30;4.80;;;2.28;;
2362;SDS011;64265;51.664;7.626;2023-02-24T08:38:57;2.67;;;1.90;;
2362;SDS011;64265;51.664;7.626;2023-02-24T08:41:24;2.75;;;2.00;;
2362;SDS011;64265;51.664;7.626;2023-02-24T08:44:10;1.85;;;1.58;;
2362;SDS011;64265;51.664;7.626;2023-02-24T08:46:42;3.33;;;1.83;;
2362;SDS011;64265;51.664;7.626;2023-02-24T08:49:09;3.08;;;2.30;;
2362;SDS011;64265;51.664;7.626;2023-02-24T08:51:41;2.28;;;1.90;;
2362;SDS011;64265;51.664;7.626;2023-02-24T08:54:09;2.20;;;2.00;;
2362;SDS011;64265;51.664;7.626;2023-02-24T08:56:39;2.28;;;1.48;;
2362;SDS011;64265;51.664;7.626;2023-02-24T08:59:10;2.42;;;1.70;;
2362;SDS011;64265;51.664;7.626;2023-02-24T09:01:52;2.13;;;1.63;;
2362;SDS011;64265;51.664;7.626;2023-02-24T09:04:40;3.40;;;1.95;;
2362;SDS011;64265;51.664;7.626;2023-02-24T09:07:11;2.78;;;1.90;;
2362;SDS011;64265;51.664;7.626;2023-02-24T09:09:39;3.13;;;1.75;;
2362;SDS011;64265;51.664;7.626;2023-02-24T09:12:07;1.90;;;1.70;;
2362;SDS011;64265;51.664;7.626;2023-02-24T09:14:37;3.40;;;1.60;;
2362;SDS011;64265;51.664;7.626;2023-02-24T09:17:05;2.55;;;1.65;;
2362;SDS011;64265;51.664;7.626;2023-02-24T09:19:36;3.65;;;2.08;;
2362;SDS011;64265;51.664;7.626;2023-02-24T09:22:23;2.85;;;1.70;;
2362;SDS011;64265;51.664;7.626;2023-02-24T09:24:59;2.07;;;1.70;;
2362;SDS011;64265;51.664;7.626;2023-02-24T09:27:43;6.50;;;1.50;;
2362;SDS011;64265;51.664;7.626;2023-02-24T09:30:13;2.80;;;1.80;;
2362;SDS011;64265;51.664;7.626;2023-02-24T09:32:59;15.95;;;2.00;;
2362;SDS011;64265;51.664;7.626;2023-02-24T09:35:30;6.03;;;2.00;;
2362;SDS011;64265;51.664;7.626;2023-02-24T09:38:00;1.50;;;1.30;;
2362;SDS011;64265;51.664;7.626;2023-02-24T09:40:30;3.63;;;1.50;;
2362;SDS011;64265;51.664;7.626;2023-02-24T09:43:04;5.28;;;1.70;;
2362;SDS011;64265;51.664;7.626;2023-02-24T09:45:42;3.03;;;1.88;;
2362;SDS011;64265;51.664;7.626;2023-02-24T09:48:19;3.97;;;1.60;;
2362;SDS011;64265;51.664;7.626;2023-02-24T09:50:50;3.85;;;1.55;;
2362;SDS011;64265;51.664;7.626;2023-02-24T09:53:28;2.13;;;1.80;;
2362;SDS011;64265;51.664;7.626;2023-02-24T09:56:04;1.93;;;1.40;;
2362;SDS011;64265;51.664;7.626;2023-02-24T09:58:42;2.40;;;1.37;;
2362;SDS011;64265;51.664;7.626;2023-02-24T10:04:15;1.92;;;1.73;;
2362;SDS011;64265;51.664;7.626;2023-02-24T10:06:57;2.93;;;1.40;;
2362;SDS011;64265;51.664;7.626;2023-02-24T10:09:29;5.57;;;1.63;;
2362;SDS011;64265;51.664;7.626;2023-02-24T10:12:00;2.45;;;1.40;;
2362;SDS011;64265;51.664;7.626;2023-02-24T10:14:34;2.07;;;1.40;;
2362;SDS011;64265;51.664;7.626;2023-02-24T10:17:08;3.37;;;1.50;;
2362;SDS011;64265;51.664;7.626;2023-02-24T10:19:49;1.83;;;1.30;;
2362;SDS011;64265;51.664;7.626;2023-02-24T10:22:25;1.70;;;1.33;;
2362;SDS011;64265;51.664;7.626;2023-02-24T10:25:00;1.53;;;1.20;;
2362;SDS011;64265;51.664;7.626;2023-02-24T10:27:39;2.70;;;1.30;;
2362;SDS011;64265;51.664;7.626;2023-02-24T10:30:19;4.23;;;1.40;;
2362;SDS011;64265;51.664;7.626;2023-02-24T10:33:08;2.30;;;1.20;;
2362;SDS011;64265;51.664;7.626;2023-02-24T10:35:42;2.57;;;1.47;;
2362;SDS011;64265;51.664;7.626;2023-02-24T10:38:09;2.17;;;1.77;;
2362;SDS011;64265;51.664;7.626;2023-02-24T10:40:43;1.80;;;1.30;;
2362;SDS011;64265;51.664;7.626;2023-02-24T10:43:14;1.50;;;1.17;;
2362;SDS011;64265;51.664;7.626;2023-02-24T10:45:43;2.23;;;1.27;;
2362;SDS011;64265;51.664;7.626;2023-02-24T10:48:17;1.80;;;1.10;;
2362;SDS011;64265;51.664;7.626;2023-02-24T10:50:49;2.13;;;1.40;;
2362;SDS011;64265;51.664;7.626;2023-02-24T10:53:18;1.40;;;1.00;;
2362;SDS011;64265;51.664;7.626;2023-02-24T10:55:58;3.10;;;1.30;;
2362;SDS011;64265;51.664;7.626;2023-02-24T10:58:58;1.60;;;1.10;;
2362;SDS011;64265;51.664;7.626;2023-02-24T11:01:44;1.70;;;1.60;;
2362;SDS011;64265;51.664;7.626;2023-02-24T11:04:28;1.17;;;0.90;;
2362;SDS011;64265;51.664;7.626;2023-02-24T11:07:18;3.20;;;1.40;;
2362;SDS011;64265;51.664;7.626;2023-02-24T11:10:00;1.63;;;1.10;;
2362;SDS011;64265;51.664;7.626;2023-02-24T11:12:35;1.30;;;1.13;;
2362;SDS011;64265;51.664;7.626;2023-02-24T11:15:21;1.97;;;1.57;;
2362;SDS011;64265;51.664;7.626;2023-02-24T11:18:13;2.23;;;1.20;;
2362;SDS011;64265;51.664;7.626;2023-02-24T11:20:45;1.63;;;1.13;;
2362;SDS011;64265;51.664;7.626;2023-02-24T11:23:14;2.20;;;1.40;;
2362;SDS011;64265;51.664;7.626;2023-02-24T11:25:45;2.10;;;1.40;;
2362;SDS011;64265;51.664;7.626;2023-02-24T11:28:21;4.33;;;1.50;;
2362;SDS011;64265;51.664;7.626;2023-02-24T11:31:08;1.80;;;1.30;;
2362;SDS011;64265;51.664;7.626;2023-02-24T11:33:45;2.40;;;1.57;;
2362;SDS011;64265;51.664;7.626;2023-02-24T11:36:23;1.70;;;1.13;;
2362;SDS011;64265;51.664;7.626;2023-02-24T11:39:01;2.80;;;1.10;;
2362;SDS011;64265;51.664;7.626;2023-02-24T11:41:36;5.00;;;1.20;;
2362;SDS011;64265;51.664;7.626;2023-02-24T11:44:08;2.23;;;1.30;;
2362;SDS011;64265;51.664;7.626;2023-02-24T11:46:42;6.70;;;1.10;;
2362;SDS011;64265;51.664;7.626;2023-02-24T11:49:17;2.30;;;1.13;;
2362;SDS011;64265;51.664;7.626;2023-02-24T11:51:53;1.70;;;1.13;;
2362;SDS011;64265;51.664;7.626;2023-02-24T11:54:22;3.10;;;1.47;;
2362;SDS011;64265;51.664;7.626;2023-02-24T11:56:51;2.57;;;1.20;;
2362;SDS011;64265;51.664;7.626;2023-02-24T11:59:24;2.07;;;1.30;;
2362;SDS011;64265;51.664;7.626;2023-02-24T12:02:00;1.50;;;1.00;;
2362;SDS011;64265;51.664;7.626;2023-02-24T12:04:33;2.30;;;1.27;;
2362;SDS011;64265;51.664;7.626;2023-02-24T12:07:07;1.70;;;1.37;;
2362;SDS011;64265;51.664;7.626;2023-02-24T12:09:40;1.77;;;1.10;;
2362;SDS011;64265;51.664;7.626;2023-02-24T12:12:12;1.60;;;1.07;;
2362;SDS011;64265;51.664;7.626;2023-02-24T12:14:44;1.90;;;1.10;;
2362;SDS011;64265;51.664;7.626;2023-02-24T12:17:16;2.33;;;0.97;;
2362;SDS011;64265;51.664;7.626;2023-02-24T12:19:51;3.93;;;1.20;;
2362;SDS011;64265;51.664;7.626;2023-02-24T12:22:27;2.77;;;1.27;;
2362;SDS011;64265;51.664;7.626;2023-02-24T12:24:57;6.87;;;1.47;;
2362;SDS011;64265;51.664;7.626;2023-02-24T12:27:26;2.03;;;1.20;;
2362;SDS011;64265;51.664;7.626;2023-02-24T12:30:11;1.20;;;1.10;;
2362;SDS011;64265;51.664;7.626;2023-02-24T12:33:03;2.90;;;1.20;;
2362;SDS011;64265;51.664;7.626;2023-02-24T12:35:42;1.20;;;1.00;;
2362;SDS011;64265;51.664;7.626;2023-02-24T12:38:24;1.20;;;1.00;;
2362;SDS011;64265;51.664;7.626;2023-02-24T12:41:04;1.50;;;1.20;;
2362;SDS011;64265;51.664;7.626;2023-02-24T12:43:42;1.53;;;1.03;;
2362;SDS011;64265;51.664;7.626;2023-02-24T12:46:17;1.97;;;1.30;;
2362;SDS011;64265;51.664;7.626;2023-02-24T12:49:07;1.40;;;1.10;;
2362;SDS011;64265;51.664;7.626;2023-02-24T12:51:45;1.50;;;1.00;;
2362;SDS011;64265;51.664;7.626;2023-02-24T12:54:27;1.20;;;0.90;;
2362;SDS011;64265;51.664;7.626;2023-02-24T12:56:59;1.77;;;1.10;;
2362;SDS011;64265;51.664;7.626;2023-02-24T12:59:36;2.30;;;1.00;;
2362;SDS011;64265;51.664;7.626;2023-02-24T13:02:05;2.60;;;1.60;;
2362;SDS011;64265;51.664;7.626;2023-02-24T13:04:40;1.93;;;1.27;;
2362;SDS011;64265;51.664;7.626;2023-02-24T13:07:20;1.20;;;1.07;;
2362;SDS011;64265;51.664;7.626;2023-02-24T13:10:06;1.60;;;1.20;;
2362;SDS011;64265;51.664;7.626;2023-02-24T13:12:42;1.60;;;1.10;;
2362;SDS011;64265;51.664;7.626;2023-02-24T13:15:17;3.13;;;1.50;;
2362;SDS011;64265;51.664;7.626;2023-02-24T13:17:46;2.20;;;1.30;;
2362;SDS011;64265;51.664;7.626;2023-02-24T13:20:24;4.90;;;1.10;;
2362;SDS011;64265;51.664;7.626;2023-02-24T13:22:52;3.20;;;1.20;;
2362;SDS011;64265;51.664;7.626;2023-02-24T13:25:22;2.37;;;1.30;;
2362;SDS011;64265;51.664;7.626;2023-02-24T13:27:56;2.57;;;1.43;;
2362;SDS011;64265;51.664;7.626;2023-02-24T13:30:33;1.17;;;1.00;;
2362;SDS011;64265;51.664;7.626;2023-02-24T13:33:04;2.37;;;1.20;;
2362;SDS011;64265;51.664;7.626;2023-02-24T13:35:34;1.83;;;1.10;;
2362;SDS011;64265;51.664;7.626;2023-02-24T13:38:09;1.60;;;1.13;;
2362;SDS011;64265;51.664;7.626;2023-02-24T13:40:49;2.47;;;1.70;;
2362;SDS011;64265;51.664;7.626;2023-02-24T13:43:20;2.60;;;1.30;;
2362;SDS011;64265;51.664;7.626;2023-02-24T13:45:53;2.87;;;1.40;;
2362;SDS011;64265;51.664;7.626;2023-02-24T13:48:30;3.93;;;1.57;;
2362;SDS011;64265;51.664;7.626;2023-02-24T13:51:12;3.03;;;1.10;;
2362;SDS011;64265;51.664;7.626;2023-02-24T13:53:56;1.50;;;1.10;;
2362;SDS011;64265;51.664;7.626;2023-02-24T13:56:37;1.30;;;1.10;;
2362;SDS011;64265;51.664;7.626;2023-02-24T13:59:15;1.50;;;1.00;;
2362;SDS011;64265;51.664;7.626;2023-02-24T14:01:55;1.57;;;1.20;;
2362;SDS011;64265;51.664;7.626;2023-02-24T14:04:24;1.90;;;1.20;;
2362;SDS011;64265;51.664;7.626;2023-02-24T14:06:54;1.13;;;0.83;;
2362;SDS011;64265;51.664;7.626;2023-02-24T14:09:25;1.57;;;0.90;;
2362;SDS011;64265;51.664;7.626;2023-02-24T14:11:57;1.50;;;1.30;;
2362;SDS011;64265;51.664;7.626;2023-02-24T14:14:26;3.23;;;1.57;;
2362;SDS011;64265;51.664;7.626;2023-02-24T14:16:54;1.40;;;1.10;;
2362;SDS011;64265;51.664;7.626;2023-02-24T14:19:22;3.83;;;3.10;;
2362;SDS011;64265;51.664;7.626;2023-02-24T14:21:51;4.67;;;4.27;;
2362;SDS011;64265;51.664;7.626;2023-02-24T14:24:19;6.28;;;4.95;;
2362;SDS011;64265;51.664;7.626;2023-02-24T14:26:48;6.72;;;4.60;;
2362;SDS011;64265;51.664;7.626;2023-02-24T14:29:18;4.90;;;3.05;;
2362;SDS011;64265;51.664;7.626;2023-02-24T14:31:47;5.90;;;2.63;;
2362;SDS011;64265;51.664;7.626;2023-02-24T14:34:17;4.05;;;2.30;;
2362;SDS011;64265;51.664;7.626;2023-02-24T14:36:45;5.15;;;2.22;;
2362;SDS011;64265;51.664;7.626;2023-02-24T14:39:15;2.20;;;2.00;;
2362;SDS011;64265;51.664;7.626;2023-02-24T14:41:43;3.75;;;2.10;;
2362;SDS011;64265;51.664;7.626;2023-02-24T14:44:16;2.58;;;2.25;;
2362;SDS011;64265;51.664;7.626;2023-02-24T14:46:46;3.33;;;2.60;;
2362;SDS011;64265;51.664;7.626;2023-02-24T14:49:16;4.20;;;2.00;;
2362;SDS011;64265;51.664;7.626;2023-02-24T14:51:44;2.33;;;1.83;;
2362;SDS011;64265;51.664;7.626;2023-02-24T14:54:15;3.58;;;1.92;;
2362;SDS011;64265;51.664;7.626;2023-02-24T14:56:47;3.67;;;2.40;;
2362;SDS011;64265;51.664;7.626;2023-02-24T14:59:15;1.75;;;1.65;;
2362;SDS011;64265;51.664;7.626;2023-02-24T15:01:47;2.58;;;1.95;;
2362;SDS011;64265;51.664;7.626;2023-02-24T15:04:20;5.50;;;2.27;;
2362;SDS011;64265;51.664;7.626;2023-02-24T15:06:55;3.60;;;2.10;;
2362;SDS011;64265;51.664;7.626;2023-02-24T15:09:23;3.20;;;1.77;;
2362;SDS011;64265;51.664;7.626;2023-02-24T15:11:52;3.40;;;1.90;;
2362;SDS011;64265;51.664;7.626;2023-02-24T15:14:22;3.08;;;1.50;;
2362;SDS011;64265;51.664;7.626;2023-02-24T15:16:51;4.18;;;1.50;;
2362;SDS011;64265;51.664;7.626;2023-02-24T15:19:23;3.38;;;1.63;;
2362;SDS011;64265;51.664;7.626;2023-02-24T15:21:52;5.25;;;1.83;;
2362;SDS011;64265;51.664;7.626;2023-02-24T15:24:23;2.35;;;1.65;;
2362;SDS011;64265;51.664;7.626;2023-02-24T15:26:52;1.60;;;1.50;;
2362;SDS011;64265;51.664;7.626;2023-02-24T15:29:22;1.95;;;1.33;;
2362;SDS011;64265;51.664;7.626;2023-02-24T15:31:51;2.13;;;1.73;;
2362;SDS011;64265;51.664;7.626;2023-02-24T15:34:20;2.50;;;1.75;;
2362;SDS011;64265;51.664;7.626;2023-02-24T15:36:49;2.23;;;2.03;;
2362;SDS011;64265;51.664;7.626;2023-02-24T15:39:20;3.23;;;2.03;;
2362;SDS011;64265;51.664;7.626;2023-02-24T15:41:49;1.70;;;1.60;;